Bobruysr, Belarus
Current Conditions -  °F | °C
As of 12:30 AM on Friday 19 Dec 2014 (Local Time) from UMMS Reporting Station
Moderate Fog Moderate Fog  
Wind Chill: 28°   Ceiling: 100
Heat Index: 34°   Visibility: 0.5mi
Dew Point: 34°   Wind: 7mph
Humidity: 100%   Direction: 180°S
Pressure: 29.71"   Gusts: 13mph
Location:  53.22°N, 29.18°E
Report Text: UMMS 182230Z 18003G06MPS 140V220 0800 R31/P1500 FGVV001 01/01 Q1006 R31/610450 NOSIG RMK QBB050
Loading
Personal Weather Stations






























Interactive Weather Map New forecast layout! Learn more

10-Day Weather Forecast

Advertisements
Track Severe Weather on mobile